Flight Track Log - Related Links

Times and Time Zones

All times are in EST time to prevent confusion due to time zone crossing. See the UAL1034 flight status page for this flight to view local times or setup timezone preferences in your user account.

Time Position Orientation Groundspeed Altitude Reporting Facility
EST Latitude Longitude Course Direction KTS MPH feet Rate Location/Type
Wed 12:31:25 PM 39.8757 -104.6415 86° East 163 188 5,400  Level FlightAware ADS-B
Wed 12:31:44 PM 39.8752 -104.6202 92° East 165 190 6,300 2,308 Climbing FlightAware ADS-B
Wed 12:32:04 PM 39.8737 -104.6015 96° East 187 215 6,900 1,800 Climbing FlightAware ADS-B
Wed 12:32:24 PM 39.8701 -104.5761 100° East 212 244 7,500 2,250 Climbing FlightAware ADS-B
Wed 12:32:44 PM 39.8618 -104.5533 115° Southeast 221 254 8,400 2,400 Climbing FlightAware ADS-B
Wed 12:33:04 PM 39.8524 -104.5270 115° Southeast 249 287 9,100 1,463 Climbing FlightAware ADS-B
Wed 12:33:25 PM 39.8436 -104.5008 114° Southeast 291 335 9,400 1,231 Climbing FlightAware ADS-B
Wed 12:33:43 PM 39.8395 -104.4879 113° Southeast 302 348 9,900 1,385 Climbing FlightAware ADS-B
Wed 12:34:17 PM 39.8113 -104.4043 114° Southeast 333 383 10,600 2,060 Climbing FlightAware ADS-B (EGHH / BOH)
Wed 12:34:50 PM 39.7896 -104.3418 114° Southeast 350 403 12,200 2,769 Climbing FlightAware ADS-B
Wed 12:35:22 PM 39.7731 -104.2948 115° Southeast 365 420 13,600 1,935 Climbing FlightAware ADS-B (EGHH / BOH)
Wed 12:35:52 PM 39.7549 -104.2426 114° Southeast 402 463 14,200 1,548 Climbing FlightAware ADS-B
Wed 12:36:24 PM 39.7233 -104.1521 114° Southeast 429 494 15,200 1,808 Climbing FlightAware ADS-B
Wed 12:37:05 PM 39.6869 -104.0488 115° Southeast 456 525 16,400 1,899 Climbing FlightAware ADS-B
Wed 12:37:43 PM 39.6527 -103.9549 115° Southeast 470 541 17,700 2,051 Climbing FlightAware ADS-B
Wed 12:38:24 PM 39.6105 -103.8484 117° Southeast 489 563 19,100 1,902 Climbing FlightAware ADS-B
Wed 12:39:05 PM 39.5774 -103.7484 113° Southeast 505 581 20,300 1,852 Climbing FlightAware ADS-B
Wed 12:39:45 PM 39.5515 -103.6517 109° East 515 593 21,600 2,049 Climbing FlightAware ADS-B
Wed 12:40:27 PM 39.5094 -103.4911 109° East 525 604 23,100 1,875 Climbing FlightAware ADS-B
Wed 12:41:05 PM 39.4821 -103.3874 109° East 534 615 24,100 1,737 Climbing FlightAware ADS-B
Wed 12:41:43 PM 39.4531 -103.2776 109° East 538 619 25,300 2,029 Climbing FlightAware ADS-B
Wed 12:42:13 PM 39.4282 -103.1841 109° East 535 616 26,400 2,300 Climbing FlightAware ADS-B (EGHH / BOH)
Wed 12:42:43 PM 39.4030 -103.0901 109° East 534 615 27,600 1,941 Climbing FlightAware ADS-B
Wed 12:43:21 PM 39.3707 -102.9707 109° East 541 623 28,600 1,859 Climbing FlightAware ADS-B
Wed 12:43:54 PM 39.3415 -102.8628 109° East 541 623 29,800 1,735 Climbing FlightAware ADS-B (EGHH / BOH)
Wed 12:44:44 PM 39.3038 -102.7238 109° East 547 629 31,000 800 Climbing FlightAware ADS-B
Wed 12:45:24 PM 39.2681 -102.5926 109° East 551 634 31,000  Level FlightAware ADS-B
Wed 12:45:29 PM 39.2698 -102.5987 290° West 551 634 31,000  Level FlightAware ADS-B (EGHH / BOH)
Wed 12:46:04 PM 39.2347 -102.4709 109° East 549 632 31,000  Level FlightAware ADS-B
Wed 12:46:35 PM 39.2069 -102.3701 110° East 548 631 31,000  Level FlightAware ADS-B (EGHH / BOH)
Wed 12:47:13 PM 39.1803 -102.2738 110° East 546 628 31,000  Level FlightAware ADS-B
Wed 12:47:59 PM 39.1359 -102.1138 110° East 545 627 31,000 553 Level FlightAware ADS-B (EGHH / BOH)
Wed 12:48:29 PM 39.1094 -102.0393 115° Southeast 543 625 31,700 1,500 Climbing FlightAware ADS-B
Wed 12:49:03 PM 39.1209 -102.0665 299° West 534 615 32,600 1,419 Climbing FlightAware ADS-B (EGHH / BOH)
Wed 12:50:02 PM 39.0063 -101.9003 132° Southeast 547 629 33,900 1,479 Climbing FlightAware ADS-B (EGHH / BOH)
Wed 12:50:16 PM 38.9912 -101.8836 139° Southeast 537 618 34,400 1,765 Climbing FlightAware ADS-B
Wed 12:50:53 PM 39.0063 -101.9003 319° Northwest 553 636 35,400 1,333 Climbing FlightAware ADS-B (EGHH / BOH)
Wed 12:51:28 PM 39.0063 -101.9003 319° Northwest 553 636 36,000 990 Climbing FlightAware ADS-B (EGHH / BOH)
Wed 12:52:30 PM 38.6661 -101.5278 319° Northwest 550 633 37,000 1,000 Climbing Kansas City Center
Wed 12:53:34 PM 38.5375 -101.3867 139° Southeast 547 629 38,100 952 Climbing Kansas City Center
Wed 12:54:36 PM 38.4278 -101.2683 140° Southeast 541 623 39,000 443 Climbing Kansas City Center
Wed 12:55:36 PM 38.2997 -101.1311 140° Southeast 538 619 39,000  Level Kansas City Center
Wed 12:56:40 PM 38.1894 -101.0139 140° Southeast 538 619 39,000  Level Kansas City Center
Wed 12:57:41 PM 38.0800 -100.8969 140° Southeast 536 617 39,000  Level Kansas City Center
Wed 12:58:42 PM 37.9519 -100.7614 140° Southeast 534 615 39,000  Level Kansas City Center
Wed 12:59:46 PM 37.8350 -100.6594 145° Southeast 528 608 39,000  Level Kansas City Center
Wed 01:00:47 PM 37.7025 -100.5531 148° Southeast 527 606 39,000  Level Kansas City Center
Wed 01:01:48 PM 37.5761 -100.4500 147° Southeast 525 604 39,000  Level Kansas City Center
Wed 01:02:51 PM 37.4581 -100.3539 147° Southeast 525 604 39,000  Level Kansas City Center
Wed 01:03:55 PM 37.3206 -100.2419 147° Southeast 525 604 39,000  Level Kansas City Center
Wed 01:04:55 PM 37.2028 -100.1472 147° Southeast 524 603 39,000  Level Kansas City Center
Wed 01:05:58 PM 37.0686 -100.0264 144° Southeast 531 611 39,000  Level Kansas City Center
Wed 01:07:00 PM 36.9561 -99.8994 138° Southeast 535 616 39,000  Level Kansas City Center
Wed 01:08:00 PM 36.8425 -99.7783 140° Southeast 536 617 39,000  Level Kansas City Center
Wed 01:09:04 PM 36.7314 -99.6528 138° Southeast 537 618 39,000  Level Kansas City Center
Wed 01:10:05 PM 36.6189 -99.5311 139° Southeast 535 616 39,000  Level Kansas City Center
Wed 01:11:09 PM 36.4969 -99.4306 146° Southeast 527 606 39,000  Level Kansas City Center
Wed 01:12:09 PM 36.3456 -99.3242 150° Southeast 519 597 39,000  Level Kansas City Center
Wed 01:13:13 PM 36.2275 -99.2386 150° Southeast 520 598 39,000  Level Kansas City Center
Wed 01:14:13 PM 36.1036 -99.1478 149° Southeast 520 598 39,000  Level Kansas City Center
Wed 01:15:16 PM 35.9786 -99.0572 150° Southeast 521 600 39,000  Level Kansas City Center
Wed 01:16:17 PM 35.8292 -98.9492 150° Southeast 521 600 39,000  Level Kansas City Center
Wed 01:17:21 PM 35.7086 -98.8628 150° Southeast 519 597 39,000  Level Kansas City Center
Wed 01:18:21 PM 35.5831 -98.7736 150° Southeast 519 597 39,000  Level Kansas City Center
Wed 01:18:57 PM 35.5094 -98.7197 149° Southeast 521 600 39,000  Level Fort Worth Center
Wed 01:20:00 PM 35.3847 -98.6303 150° Southeast 520 598 39,000  Level Fort Worth Center
Wed 01:21:02 PM 35.2589 -98.5417 150° Southeast 520 598 39,000  Level Fort Worth Center
Wed 01:22:04 PM 35.1072 -98.4356 150° Southeast 521 600 39,000  Level Fort Worth Center
Wed 01:23:06 PM 34.9822 -98.3481 150° Southeast 522 601 39,000  Level Fort Worth Center
Wed 01:24:08 PM 34.8589 -98.2600 150° Southeast 519 597 39,000  Level Fort Worth Center
Wed 01:25:10 PM 34.7344 -98.1731 150° Southeast 518 596 39,000  Level Fort Worth Center
Wed 01:30:51 PM 34.0142 -97.6849 150° Southeast 515 593 39,000  Level FlightAware ADS-B
Wed 01:31:32 PM 33.9390 -97.6331 150° Southeast 515 593 39,000  Level FlightAware ADS-B
Wed 01:32:13 PM 33.8434 -97.5672 150° Southeast 515 593 39,000  Level FlightAware ADS-B
Wed 01:32:55 PM 33.7534 -97.5056 150° Southeast 515 593 39,000  Level FlightAware ADS-B
Wed 01:34:33 PM 33.5555 -97.3701 150° Southeast 515 593 39,000  Level FlightAware ADS-B
Wed 01:35:11 PM 33.4791 -97.3181 150° Southeast 516 594 39,000  Level FlightAware ADS-B
Wed 01:35:52 PM 33.3938 -97.2599 150° Southeast 515 593 39,000  Level FlightAware ADS-B
Wed 01:36:33 PM 33.3167 -97.2076 150° Southeast 515 593 39,000  Level FlightAware ADS-B
Wed 01:36:36 PM 33.2855 -97.1865 150° Southeast 516 594 39,000  Level FlightAware ADS-B
Wed 01:37:07 PM 33.2207 -97.1429 151° Southeast 516 594 39,000  Level FlightAware ADS-B
Wed 01:37:10 PM 33.2271 -97.1470 331° Northwest 514 592 39,000  Level FlightAware ADS-B
Wed 01:37:52 PM 33.1394 -97.0965 154° Southeast 507 583 39,000  Level FlightAware ADS-B
Wed 01:38:16 PM 33.0761 -97.0690 160° South 500 575 39,000  Level FlightAware ADS-B
Wed 01:38:33 PM 33.0464 -97.0584 163° South 498 573 39,000  Level FlightAware ADS-B
Wed 01:38:53 PM 33.0172 -97.0484 164° South 498 573 39,000  Level FlightAware ADS-B
Wed 01:39:14 PM 32.9578 -97.0287 164° South 496 571 39,000  Level FlightAware ADS-B
Wed 01:39:37 PM 32.8989 -97.0088 164° South 498 573 39,000  Level FlightAware ADS-B
Wed 01:39:51 PM 32.8754 -97.0007 164° South 497 572 39,000  Level FlightAware ADS-B
Wed 01:40:07 PM 32.8295 -96.9849 164° South 498 573 39,000  Level FlightAware ADS-B
Wed 01:40:33 PM 32.7835 -96.9688 164° South 497 572 39,000  Level FlightAware ADS-B
Wed 01:41:06 PM 32.7035 -96.9406 163° South 499 574 39,000  Level FlightAware ADS-B
Wed 01:41:10 PM 32.6969 -96.9383 164° South 498 573 39,000  Level FlightAware ADS-B
Wed 01:41:36 PM 32.6642 -96.9266 163° South 499 574 39,000  Level FlightAware ADS-B
Wed 01:41:51 PM 32.6359 -96.9166 164° South 498 573 39,000  Level FlightAware ADS-B
Wed 01:42:11 PM 32.5527 -96.8908 165° South 484 557 39,000  Level FlightAware ADS-B
Wed 01:42:51 PM 32.4696 -96.8974 184° South 452 520 39,000  Level FlightAware ADS-B
Wed 01:43:08 PM 32.5079 -96.8895 10° North 468 539 39,000  Level FlightAware ADS-B
Wed 01:43:14 PM 32.5434 -96.8897 360° North 448 516 39,000  Level FlightAware ADS-B
Wed 01:43:17 PM 32.4146 -96.9154 190° South 449 517 39,000  Level FlightAware ADS-B
Wed 01:43:47 PM 32.3549 -96.9357 196° South 449 517 39,000  Level FlightAware ADS-B
Wed 01:44:17 PM 32.2929 -96.9566 196° South 449 517 39,000  Level FlightAware ADS-B
Wed 01:44:47 PM 32.2456 -96.9727 196° South 449 517 39,000 -176 Level FlightAware ADS-B
Wed 01:45:25 PM 32.1584 -97.0028 196° South 449 517 38,800 -783 Descending FlightAware ADS-B
Wed 01:45:56 PM 32.0981 -97.0234 196° South 453 521 38,100 -1,463 Descending FlightAware ADS-B
Wed 01:46:06 PM 32.0763 -97.0287 192° South 460 529 37,800 -1,579 Descending FlightAware ADS-B
Wed 01:46:15 PM 32.0562 -97.0314 187° South 468 539 37,600 -1,200 Descending FlightAware ADS-B
Wed 01:46:16 PM 32.0584 -97.0311 North 467 537 37,600 -571 Level FlightAware ADS-B
Wed 01:46:36 PM 32.0135 -97.0296 178° South 480 552 37,400 -1,000 Descending FlightAware ADS-B
Wed 01:46:46 PM 31.9893 -97.0237 168° South 486 559 37,100 -1,263 Descending FlightAware ADS-B
Wed 01:46:55 PM 31.9685 -97.0156 162° South 497 572 37,000 -545 Descending FlightAware ADS-B
Wed 01:46:57 PM 31.9659 -97.0144 158° South 496 571 37,000 -1,200 Level FlightAware ADS-B
Wed 01:47:05 PM 31.9616 -97.0124 158° South 501 577 36,800 -1,333 Descending FlightAware ADS-B
Wed 01:47:15 PM 31.9283 -96.9906 151° Southeast 509 586 36,600 -1,350 Descending FlightAware ADS-B
Wed 01:47:45 PM 31.8696 -96.9449 147° Southeast 514 592 35,900 -1,350 Descending FlightAware ADS-B
Wed 01:47:55 PM 31.8492 -96.9286 146° Southeast 516 594 35,700 -1,400 Descending FlightAware ADS-B
Wed 01:48:15 PM 31.8100 -96.8976 146° Southeast 518 596 35,200 -1,400 Descending FlightAware ADS-B
Wed 01:48:25 PM 31.7907 -96.8821 146° Southeast 519 597 35,000 -1,355 Descending FlightAware ADS-B
Wed 01:48:46 PM 31.7496 -96.8496 146° Southeast 519 597 34,500 -1,294 Descending FlightAware ADS-B
Wed 01:49:16 PM 31.6916 -96.8042 146° Southeast 522 601 33,900 -1,200 Descending FlightAware ADS-B
Wed 01:49:26 PM 31.6695 -96.7868 146° Southeast 522 601 33,700 -1,241 Descending FlightAware ADS-B
Wed 01:49:45 PM 31.6298 -96.7558 146° Southeast 523 602 33,300 -1,200 Descending FlightAware ADS-B
Wed 01:49:56 PM 31.6089 -96.7394 146° Southeast 524 603 33,100 -1,200 Descending FlightAware ADS-B
Wed 01:50:25 PM 31.5500 -96.6936 146° Southeast 525 604 32,500 -1,220 Descending FlightAware ADS-B
Wed 01:50:55 PM 31.4846 -96.6560 154° Southeast 512 589 31,900 -1,286 Descending FlightAware ADS-B
Wed 01:51:07 PM 31.4601 -96.6485 165° South 505 581 31,600 -1,429 Descending FlightAware ADS-B
Wed 01:51:16 PM 31.4381 -96.6445 171° South 500 575 31,400 -1,200 Descending FlightAware ADS-B
Wed 01:51:37 PM 31.3904 -96.6412 177° South 495 570 31,000 -774 Descending FlightAware ADS-B
Wed 01:51:47 PM 31.3689 -96.6397 177° South 497 572 31,000  Level FlightAware ADS-B
Wed 01:51:55 PM 31.3472 -96.6365 173° South 501 577 31,000 -1,714 Level FlightAware ADS-B
Wed 01:52:15 PM 31.3018 -96.6239 167° South 512 589 30,200 -2,400 Descending FlightAware ADS-B
Wed 01:52:35 PM 31.2585 -96.6023 157° South 516 594 29,400 -2,323 Descending FlightAware ADS-B
Wed 01:52:46 PM 31.2376 -96.5879 149° Southeast 517 595 29,000 -2,200 Descending FlightAware ADS-B
Wed 01:53:05 PM 31.1989 -96.5542 143° Southeast 514 592 28,300 -2,276 Descending FlightAware ADS-B
Wed 01:53:15 PM 31.1805 -96.5374 142° Southeast 512 589 27,900 -2,250 Descending FlightAware ADS-B
Wed 01:53:45 PM 31.1260 -96.4869 142° Southeast 502 578 26,800 -2,200 Descending FlightAware ADS-B
Wed 01:54:15 PM 31.0719 -96.4370 142° Southeast 493 567 25,700 -2,066 Descending FlightAware ADS-B
Wed 01:54:46 PM 31.0184 -96.3877 142° Southeast 483 556 24,700 -2,100 Descending FlightAware ADS-B
Wed 01:54:55 PM 31.0014 -96.3719 141° Southeast 480 552 24,300 -2,200 Descending FlightAware ADS-B
Wed 01:55:16 PM 30.9660 -96.3397 142° Southeast 473 544 23,600 -2,200 Descending FlightAware ADS-B
Wed 01:55:25 PM 30.9492 -96.3244 142° Southeast 469 540 23,200 -2,000 Descending FlightAware ADS-B
Wed 01:55:46 PM 30.9150 -96.2931 142° Southeast 462 532 22,600 -1,935 Descending FlightAware ADS-B
Wed 01:55:56 PM 30.8987 -96.2780 142° Southeast 458 527 22,200 -2,276 Descending FlightAware ADS-B
Wed 01:56:15 PM 30.8659 -96.2483 142° Southeast 451 519 21,500 -1,950 Descending FlightAware ADS-B
Wed 01:56:36 PM 30.8331 -96.2185 142° Southeast 437 503 20,900 -2,200 Descending FlightAware ADS-B
Wed 01:56:45 PM 30.8170 -96.2039 142° Southeast 428 493 20,400 -2,400 Descending FlightAware ADS-B
Wed 01:57:06 PM 30.7873 -96.1767 142° Southeast 410 472 19,700 -2,600 Descending FlightAware ADS-B
Wed 01:57:15 PM 30.7723 -96.1632 142° Southeast 408 470 19,100 -2,850 Descending FlightAware ADS-B
Wed 01:57:46 PM 30.7286 -96.1233 142° Southeast 390 449 17,800 -2,400 Descending FlightAware ADS-B
Wed 01:58:05 PM 30.7008 -96.1002 144° Southeast 371 427 17,100 -2,286 Descending FlightAware ADS-B
Wed 01:58:07 PM 30.6980 -96.0985 152° Southeast 370 426 17,000 -2,727 Descending FlightAware ADS-B
Wed 01:58:16 PM 30.6839 -96.0911 156° South 362 417 16,600 -2,842 Descending FlightAware ADS-B
Wed 01:58:26 PM 30.6706 -96.0851 159° South 360 414 16,100 -2,211 Descending FlightAware ADS-B
Wed 01:58:35 PM 30.6535 -96.0782 161° South 358 412 15,900 -1,600 Descending FlightAware ADS-B
Wed 01:58:56 PM 30.6206 -96.0651 161° South 354 407 15,300 -1,800 Descending FlightAware ADS-B
Wed 01:59:15 PM 30.5909 -96.0537 162° South 353 406 14,700 -1,800 Descending FlightAware ADS-B
Wed 01:59:26 PM 30.5744 -96.0475 162° South 353 406 14,400 -1,800 Descending FlightAware ADS-B
Wed 01:59:45 PM 30.5452 -96.0348 159° South 354 407 13,800 -1,800 Descending FlightAware ADS-B
Wed 01:59:46 PM 30.5437 -96.0339 154° Southeast 353 406 13,800 -1,500 Level FlightAware ADS-B
Wed 01:59:57 PM 30.5295 -96.0238 148° Southeast 354 407 13,500 -1,579 Descending FlightAware ADS-B
Wed 02:00:05 PM 30.5181 -96.0130 141° Southeast 354 407 13,300 -1,667 Descending FlightAware ADS-B
Wed 02:00:15 PM 30.5070 -95.9996 134° Southeast 354 407 13,000 -1,714 Descending FlightAware ADS-B
Wed 02:00:26 PM 30.4981 -95.9852 126° Southeast 354 407 12,700 -1,610 Descending FlightAware ADS-B
Wed 02:00:56 PM 30.4761 -95.9336 116° Southeast 352 405 11,900 -1,548 Descending FlightAware ADS-B
Wed 02:00:57 PM 30.4757 -95.9326 110° East 352 405 11,900 -207 Level FlightAware ADS-B
Wed 02:01:25 PM 30.4543 -95.8829 117° Southeast 350 403 11,800 -154 Descending FlightAware ADS-B
Wed 02:01:36 PM 30.4448 -95.8677 126° Southeast 350 403 11,800  Level FlightAware ADS-B
Wed 02:01:45 PM 30.4340 -95.8540 132° Southeast 359 413 11,800  Level FlightAware ADS-B
Wed 02:02:26 PM 30.3827 -95.7994 137° Southeast 364 419 11,800  Level FlightAware ADS-B
Wed 02:02:27 PM 30.3815 -95.7980 135° Southeast 363 418 11,800 -600 Level FlightAware ADS-B
Wed 02:02:56 PM 30.3477 -95.7629 138° Southeast 340 391 11,500 -649 Descending FlightAware ADS-B
Wed 02:03:04 PM 30.3389 -95.7536 138° Southeast 336 387 11,400 -774 Descending FlightAware ADS-B
Wed 02:03:27 PM 30.3138 -95.7273 138° Southeast 324 373 11,100 -828 Descending FlightAware ADS-B
Wed 02:03:33 PM 30.3051 -95.7180 137° Southeast 319 367 11,000 -1,034 Descending FlightAware ADS-B
Wed 02:03:56 PM 30.2807 -95.6927 138° Southeast 315 362 10,600 -1,171 Descending FlightAware ADS-B
Wed 02:04:14 PM 30.2617 -95.6727 138° Southeast 312 359 10,200 -1,355 Descending FlightAware ADS-B
Wed 02:04:27 PM 30.2483 -95.6587 138° Southeast 309 356 9,900 -1,125 Descending FlightAware ADS-B
Wed 02:04:30 PM 30.2447 -95.6551 139° Southeast 308 354 9,900 -1,200 Level FlightAware ADS-B
Wed 02:04:42 PM 30.2321 -95.6419 138° Southeast 305 351 9,600 -1,412 Descending FlightAware ADS-B
Wed 02:04:47 PM 30.2263 -95.6357 137° Southeast 304 350 9,500 -1,200 Descending FlightAware ADS-B
Wed 02:04:57 PM 30.2188 -95.6280 139° Southeast 302 348 9,300 -1,000 Descending FlightAware ADS-B
Wed 02:05:05 PM 30.2078 -95.6163 137° Southeast 300 345 9,200 -1,200 Descending FlightAware ADS-B
Wed 02:05:12 PM 30.2012 -95.6094 138° Southeast 298 343 9,000 -1,263 Descending FlightAware ADS-B
Wed 02:05:24 PM 30.1891 -95.5967 138° Southeast 295 339 8,800 -1,200 Descending FlightAware ADS-B
Wed 02:05:27 PM 30.1861 -95.5936 138° Southeast 294 338 8,700 -1,333 Descending FlightAware ADS-B
Wed 02:05:42 PM 30.1712 -95.5780 138° Southeast 291 335 8,400 -1,200 Descending FlightAware ADS-B
Wed 02:05:57 PM 30.1561 -95.5622 138° Southeast 288 331 8,100 -1,059 Descending FlightAware ADS-B
Wed 02:05:59 PM 30.1585 -95.5646 320° Northwest 287 330 8,100 -1,200 Level FlightAware ADS-B
Wed 02:06:12 PM 30.1419 -95.5472 138° Southeast 284 327 7,800 -1,333 Descending FlightAware ADS-B
Wed 02:06:17 PM 30.1369 -95.5421 138° Southeast 283 326 7,700 -1,200 Descending FlightAware ADS-B
Wed 02:06:27 PM 30.1274 -95.5322 138° Southeast 281 323 7,500 -1,333 Descending FlightAware ADS-B
Wed 02:06:35 PM 30.1190 -95.5229 136° Southeast 281 323 7,300 -1,200 Descending FlightAware ADS-B
Wed 02:06:42 PM 30.1138 -95.5154 128° Southeast 282 325 7,200 -1,636 Descending FlightAware ADS-B
Wed 02:06:46 PM 30.1106 -95.5092 121° Southeast 283 326 7,000 -2,000 Descending FlightAware ADS-B
Wed 02:06:51 PM 30.1084 -95.5037 115° Southeast 284 327 6,900 -857 Descending FlightAware ADS-B
Wed 02:06:53 PM 30.1072 -95.4997 109° East 285 328 6,900 -1,000 Level FlightAware ADS-B
Wed 02:06:57 PM 30.1060 -95.4948 105° East 285 328 6,800 -2,000 Descending FlightAware ADS-B
Wed 02:06:59 PM 30.1051 -95.4903 103° East 286 329 6,700 -1,200 Descending FlightAware ADS-B
Wed 02:07:02 PM 30.1050 -95.4887 96° East 286 329 6,700 -1,000 Level FlightAware ADS-B
Wed 02:07:05 PM 30.1044 -95.4824 96° East 287 330 6,600 -1,714 Descending FlightAware ADS-B
Wed 02:07:16 PM 30.1041 -95.4643 91° East 287 330 6,300 -1,667 Descending FlightAware ADS-B
Wed 02:07:23 PM 30.1039 -95.4537 91° East 288 331 6,100 -1,600 Descending FlightAware ADS-B
Wed 02:07:31 PM 30.1039 -95.4417 90° East 287 330 5,900 -947 Descending FlightAware ADS-B
Wed 02:07:42 PM 30.1039 -95.4268 90° East 286 329 5,800 -375 Descending FlightAware ADS-B
Wed 02:07:47 PM 30.1041 -95.4188 88° East 286 329 5,800  Level FlightAware ADS-B
Wed 02:08:01 PM 30.1041 -95.3964 90° East 287 330 5,800  Level FlightAware ADS-B
Wed 02:08:21 PM 30.1042 -95.3677 90° East 286 329 5,800  Level FlightAware ADS-B
Wed 02:08:36 PM 30.1042 -95.3433 90° East 287 330 5,800  Level FlightAware ADS-B
Wed 02:08:42 PM 30.1042 -95.3353 90° East 287 330 5,800  Level FlightAware ADS-B
Wed 02:08:51 PM 30.1043 -95.3198 90° East 286 329 5,800  Level FlightAware ADS-B
Wed 02:09:02 PM 30.1042 -95.3054 90° East 287 330 5,800  Level FlightAware ADS-B
Wed 02:09:07 PM 30.1043 -95.2972 90° East 287 330 5,800  Level FlightAware ADS-B
Wed 02:09:22 PM 30.1041 -95.2757 90° East 285 328 5,800  Level FlightAware ADS-B
Wed 02:09:29 PM 30.1041 -95.2623 90° East 284 327 5,800 -429 Level FlightAware ADS-B (EGLF / FAB)
Wed 02:09:36 PM 30.1041 -95.2518 90° East 283 326 5,700 -1,000 Descending FlightAware ADS-B
Wed 02:09:41 PM 30.1041 -95.2441 90° East 281 323 5,600 -1,500 Descending FlightAware ADS-B
Wed 02:09:52 PM 30.1039 -95.2289 91° East 279 321 5,300 -1,667 Descending FlightAware ADS-B
Wed 02:09:59 PM 30.1039 -95.2203 90° East 277 319 5,100 -1,600 Descending FlightAware ADS-B
Wed 02:10:07 PM 30.1039 -95.2074 90° East 275 316 4,900 -2,211 Descending FlightAware ADS-B
Wed 02:10:18 PM 30.1038 -95.1910 91° East 274 315 4,400 -2,571 Descending FlightAware ADS-B
Wed 02:10:21 PM 30.1037 -95.1855 90° East 274 315 4,300 -2,471 Descending FlightAware ADS-B
Wed 02:10:35 PM 30.1038 -95.1653 90° East 277 319 3,700 -2,800 Descending FlightAware ADS-B
Wed 02:10:36 PM 30.1037 -95.1638 91° East 278 320 3,600 -2,250 Descending FlightAware ADS-B
Wed 02:10:51 PM 30.1034 -95.1408 91° East 285 328 3,100 -1,765 Descending FlightAware ADS-B
Wed 02:10:53 PM 30.1032 -95.1392 96° East 286 329 3,100 -1,000 Level FlightAware ADS-B
Wed 02:10:57 PM 30.1024 -95.1330 99° East 284 327 3,000 -1,714 Descending FlightAware ADS-B
Wed 02:11:00 PM 30.1013 -95.1289 106° East 282 325 2,900 -1,500 Descending FlightAware ADS-B
Wed 02:11:01 PM 30.1007 -95.1264 107° East 278 320 2,900  Level FlightAware ADS-B
Wed 02:11:05 PM 30.1008 -95.1268 288° West 273 314 2,900  Level FlightAware ADS-B
Wed 02:11:10 PM 30.0956 -95.1159 119° Southeast 269 310 2,900  Level FlightAware ADS-B
Wed 02:11:11 PM 30.0956 -95.1159 119° Southeast 263 303 2,900 -3,000 Level FlightAware ADS-B
Wed 02:11:12 PM 30.0933 -95.1124 128° Southeast 261 300 2,800 -3,000 Descending FlightAware ADS-B (EGLF / FAB)
Wed 02:11:13 PM 30.0938 -95.1131 312° West 261 300 2,800  Level FlightAware ADS-B
Wed 02:11:18 PM 30.0902 -95.1086 133° Southeast 255 293 2,800  Level FlightAware ADS-B
Wed 02:11:24 PM 30.0835 -95.1035 146° Southeast 243 280 2,800  Level FlightAware ADS-B
Wed 02:11:25 PM 30.0819 -95.1025 150° Southeast 261 300 2,800  Level FlightAware ADS-B
Wed 02:11:30 PM 30.0780 -95.1008 159° South 238 274 2,800  Level FlightAware ADS-B
Wed 02:11:35 PM 30.0720 -95.0994 169° South 229 264 2,800  Level FlightAware ADS-B
Wed 02:11:41 PM 30.0648 -95.0997 182° South 226 260 2,800  Level FlightAware ADS-B
Wed 02:11:47 PM 30.0598 -95.1013 195° South 225 259 2,800  Level FlightAware ADS-B
Wed 02:11:48 PM 30.0588 -95.1016 197° South 225 259 2,800  Level FlightAware ADS-B
Wed 02:11:52 PM 30.0550 -95.1037 205° Southwest 224 258 2,800  Level FlightAware ADS-B
Wed 02:11:53 PM 30.0534 -95.1049 213° Southwest 224 258 2,800  Level FlightAware ADS-B
Wed 02:11:56 PM 30.0514 -95.1068 219° Southwest 224 258 2,800  Level FlightAware ADS-B
Wed 02:11:59 PM 30.0486 -95.1093 219° Southwest 224 258 2,800  Level FlightAware ADS-B
Wed 02:12:12 PM 30.0401 -95.1193 225° Southwest 222 255 2,800  Level FlightAware ADS-B
Wed 02:12:14 PM 30.0401 -95.1193 225° Southwest 221 254 2,800  Level FlightAware ADS-B
Wed 02:12:32 PM 30.0263 -95.1356 226° Southwest 206 237 2,800  Level FlightAware ADS-B
Wed 02:12:36 PM 30.0238 -95.1391 229° Southwest 204 235 2,800  Level FlightAware ADS-B
Wed 02:12:42 PM 30.0198 -95.1443 229° Southwest 201 231 2,800  Level FlightAware ADS-B
Wed 02:12:48 PM 30.0171 -95.1490 236° Southwest 200 230 2,800  Level FlightAware ADS-B
Wed 02:12:57 PM 30.0127 -95.1574 239° Southwest 201 231 2,800  Level FlightAware ADS-B
Wed 02:13:06 PM 30.0083 -95.1665 241° Southwest 204 235 2,800 -375 Level FlightAware ADS-B
Wed 02:13:13 PM 30.0059 -95.1730 247° West 207 238 2,700 -1,200 Descending FlightAware ADS-B
Wed 02:13:16 PM 30.0052 -95.1770 259° West 209 241 2,600 -857 Descending FlightAware ADS-B
Wed 02:13:20 PM 30.0049 -95.1801 262° West 209 241 2,600  Level FlightAware ADS-B
Wed 02:13:21 PM 30.0047 -95.1826 265° West 209 241 2,600 -1,125 Level FlightAware ADS-B
Wed 02:13:36 PM 30.0045 -95.1967 269° West 205 236 2,300 -1,125 Descending FlightAware ADS-B (EGLF / FAB)
Wed 02:13:37 PM 30.0045 -95.2005 269° West 206 237 2,300 -1,263 Level FlightAware ADS-B
Wed 02:13:55 PM 30.0040 -95.2180 268° West 200 230 1,900 -1,200 Descending FlightAware ADS-B
Wed 02:14:02 PM 30.0040 -95.2264 270° West 198 228 1,800 -1,059 Descending FlightAware ADS-B
Wed 02:14:12 PM 30.0040 -95.2352 270° West 198 228 1,600 -857 Descending FlightAware ADS-B
Wed 02:14:16 PM 30.0040 -95.2415 270° West 190 219 1,600 -900 Level FlightAware ADS-B
Wed 02:14:32 PM 30.0039 -95.2566 269° West 181 208 1,300 -968 Descending FlightAware ADS-B
Wed 02:14:47 PM 30.0039 -95.2697 270° West 164 189 1,100 -828 Descending FlightAware ADS-B
Wed 02:15:01 PM 30.0037 -95.2826 269° West 149 171 900 -923 Descending FlightAware ADS-B
Wed 02:15:13 PM 30.0037 -95.2917 270° West 136 157 700 -750 Descending FlightAware ADS-B (EGLF / FAB)
Wed 02:15:17 PM 30.0037 -95.2935 270° West 136 157 700 -632 Level FlightAware ADS-B
Wed 02:15:32 PM 30.0037 -95.3045 270° West 130 150 500 -1,000 Descending FlightAware ADS-B
Wed 02:15:35 PM 30.0035 -95.3073 266° West 127 146 400 -800 Descending FlightAware ADS-B (EGLF / FAB)
Wed 02:15:47 PM 30.0035 -95.3143 270° West 127 146 300 -500 Descending FlightAware ADS-B
Wed 02:17:52 PM 30.0033 -95.3335 269° West 128 147 -144 Descending FlightAware ADS-B

Login

Don't have an account? Register now (free) for customized features, flight alerts, and more!